createdAt,value
2023-02-22T00:01:51.151Z,10.52
2023-02-22T00:04:39.742Z,10.30
2023-02-22T00:07:26.077Z,11.20
2023-02-22T00:10:14.604Z,10.40
2023-02-22T00:13:00.647Z,10.13
2023-02-22T00:15:46.443Z,10.70
2023-02-22T00:18:32.238Z,11.02
2023-02-22T00:21:18.515Z,10.00
2023-02-22T00:24:22.977Z,11.00
2023-02-22T00:27:09.159Z,11.13
2023-02-22T00:29:56.630Z,10.88
2023-02-22T00:32:43.204Z,10.27
2023-02-22T00:35:30.620Z,10.48
2023-02-22T00:38:18.596Z,11.68
2023-02-22T00:41:04.809Z,11.50
2023-02-22T00:43:50.888Z,10.40
2023-02-22T00:46:38.609Z,10.30
2023-02-22T00:49:26.147Z,10.20
2023-02-22T00:52:12.484Z,9.45
2023-02-22T00:55:00.065Z,10.38
2023-02-22T00:57:45.929Z,9.95
2023-02-22T01:00:33.519Z,9.45
2023-02-22T01:03:20.974Z,9.55
2023-02-22T01:06:07.765Z,9.30
2023-02-22T01:08:53.935Z,9.10
2023-02-22T01:11:41.558Z,9.05
2023-02-22T01:14:28.147Z,8.75
2023-02-22T01:17:14.337Z,8.13
2023-02-22T01:20:00.004Z,8.43
2023-02-22T01:22:48.491Z,9.20
2023-02-22T01:25:35.431Z,9.32
2023-02-22T01:28:22.597Z,9.32
2023-02-22T01:31:09.167Z,8.73
2023-02-22T01:33:55.129Z,9.13
2023-02-22T01:36:41.324Z,9.55
2023-02-22T01:39:28.637Z,8.82
2023-02-22T01:42:14.496Z,7.95
2023-02-22T01:45:32.773Z,7.97
2023-02-22T01:48:25.013Z,8.55
2023-02-22T01:51:20.854Z,7.53
2023-02-22T01:54:11.045Z,7.88
2023-02-22T01:57:06.144Z,7.82
2023-02-22T01:59:56.862Z,8.55
2023-02-22T02:02:49.476Z,8.45
2023-02-22T02:05:39.834Z,8.25
2023-02-22T02:08:36.150Z,9.25
2023-02-22T02:11:25.596Z,8.73
2023-02-22T02:14:12.793Z,8.20
2023-02-22T02:17:01.567Z,7.40
2023-02-22T02:20:01.289Z,7.45
2023-02-22T02:23:06.339Z,7.35
2023-02-22T02:26:23.046Z,6.97
2023-02-22T02:29:18.236Z,7.40
2023-02-22T02:32:10.344Z,7.05
2023-02-22T02:34:57.725Z,6.80
2023-02-22T02:38:15.001Z,6.70
2023-02-22T02:41:32.374Z,8.32
2023-02-22T02:44:27.642Z,6.88
2023-02-22T02:47:24.025Z,7.28
2023-02-22T02:50:47.179Z,6.35
2023-02-22T02:53:36.513Z,7.07
2023-02-22T02:56:23.589Z,7.03
2023-02-22T02:59:27.641Z,7.13
2023-02-22T03:02:25.761Z,7.22
2023-02-22T03:05:11.678Z,7.22
2023-02-22T03:08:34.533Z,6.38
2023-02-22T03:11:23.879Z,6.75
2023-02-22T03:14:27.628Z,6.68
2023-02-22T03:17:41.468Z,6.60
2023-02-22T03:20:32.443Z,7.15
2023-02-22T03:23:43.696Z,7.57
2023-02-22T03:26:36.418Z,7.43
2023-02-22T03:29:25.135Z,6.90
2023-02-22T03:32:16.817Z,7.20
2023-02-22T03:35:13.115Z,6.82
2023-02-22T03:38:02.991Z,6.28
2023-02-22T03:40:52.259Z,6.45
2023-02-22T03:43:42.017Z,6.45
2023-02-22T03:46:33.060Z,6.43
2023-02-22T03:49:40.614Z,5.95
2023-02-22T03:52:26.549Z,6.20
2023-02-22T03:55:13.218Z,6.35
2023-02-22T03:58:00.604Z,6.15
2023-02-22T04:00:53.124Z,5.57
2023-02-22T04:03:40.389Z,5.63
2023-02-22T04:06:27.499Z,5.75
2023-02-22T04:09:14.912Z,5.40
2023-02-22T04:12:00.727Z,5.55
2023-02-22T04:14:47.770Z,5.70
2023-02-22T04:17:34.005Z,5.97
2023-02-22T04:20:25.627Z,5.72
2023-02-22T04:23:17.047Z,5.60
2023-02-22T04:26:03.620Z,5.45
2023-02-22T04:28:50.262Z,5.85
2023-02-22T04:31:38.255Z,6.18
2023-02-22T04:34:25.095Z,5.57
2023-02-22T04:37:12.374Z,5.93
2023-02-22T04:39:58.263Z,5.50
2023-02-22T04:42:44.179Z,5.50
2023-02-22T04:45:30.745Z,5.93
2023-02-22T04:48:16.711Z,5.88
2023-02-22T04:51:02.680Z,6.60
2023-02-22T04:53:51.153Z,6.07
2023-02-22T04:56:37.467Z,6.10
2023-02-22T04:59:24.787Z,5.80
2023-02-22T05:02:18.928Z,5.82
2023-02-22T05:05:05.663Z,5.70
2023-02-22T05:07:51.453Z,5.95
2023-02-22T05:10:37.416Z,6.00
2023-02-22T05:13:23.302Z,4.85
2023-02-22T05:16:09.065Z,5.70
2023-02-22T05:18:54.725Z,6.03
2023-02-22T05:21:40.455Z,5.57
2023-02-22T05:24:26.188Z,6.05
2023-02-22T05:27:12.220Z,5.65
2023-02-22T05:29:57.925Z,5.97
2023-02-22T05:32:46.107Z,6.18
2023-02-22T05:35:32.778Z,5.53
2023-02-22T05:38:18.440Z,6.15
2023-02-22T05:41:04.466Z,6.10
2023-02-22T05:43:50.733Z,6.20
2023-02-22T05:46:36.800Z,5.95
2023-02-22T05:49:23.211Z,6.93
2023-02-22T05:52:08.996Z,6.95
2023-02-22T05:54:54.952Z,6.63
2023-02-22T05:57:41.290Z,6.07
2023-02-22T06:00:30.139Z,6.22
2023-02-22T06:03:16.151Z,6.68
2023-02-22T06:06:02.337Z,6.25
2023-02-22T06:08:48.172Z,6.50
2023-02-22T06:11:34.542Z,6.53
2023-02-22T06:14:20.335Z,6.72
2023-02-22T06:17:06.661Z,6.50
2023-02-22T06:19:52.983Z,6.55
2023-02-22T06:22:41.275Z,7.45
2023-02-22T06:25:31.326Z,6.72
2023-02-22T06:28:17.170Z,7.38
2023-02-22T06:31:03.313Z,7.65
2023-02-22T06:33:48.953Z,7.18
2023-02-22T06:36:34.790Z,6.88
2023-02-22T06:39:20.747Z,7.07
2023-02-22T06:42:06.582Z,7.28
2023-02-22T06:44:52.251Z,7.53
2023-02-22T06:47:40.319Z,7.13
2023-02-22T06:50:32.011Z,7.35
2023-02-22T06:53:18.732Z,8.10
2023-02-22T06:56:05.055Z,7.05
2023-02-22T06:58:51.165Z,6.97
2023-02-22T07:01:37.020Z,7.47
2023-02-22T07:04:22.777Z,16.55
2023-02-22T07:07:08.503Z,15.55
2023-02-22T07:09:54.338Z,16.88
2023-02-22T07:12:40.160Z,12.63
2023-02-22T07:15:27.949Z,7.80
2023-02-22T07:18:14.194Z,7.20
2023-02-22T07:21:00.117Z,6.95
2023-02-22T07:23:56.314Z,6.65
2023-02-22T07:26:42.998Z,7.53
2023-02-22T07:29:28.834Z,6.90
2023-02-22T07:32:14.657Z,7.38
2023-02-22T07:35:02.930Z,6.70
2023-02-22T07:37:48.834Z,7.10
2023-02-22T07:40:35.518Z,6.90
2023-02-22T07:43:24.015Z,6.05
2023-02-22T07:46:11.578Z,7.43
2023-02-22T07:48:57.301Z,7.70
2023-02-22T07:51:43.246Z,7.88
2023-02-22T07:54:28.933Z,6.72
2023-02-22T07:57:15.678Z,6.95
2023-02-22T08:00:02.025Z,6.70
2023-02-22T08:02:48.079Z,7.57
2023-02-22T08:05:34.869Z,6.70
2023-02-22T08:08:20.959Z,6.43
2023-02-22T08:11:07.107Z,6.53
2023-02-22T08:13:53.063Z,6.28
2023-02-22T08:16:38.730Z,6.47
2023-02-22T08:19:24.692Z,6.97
2023-02-22T08:22:10.522Z,5.97
2023-02-22T08:24:56.327Z,6.25
2023-02-22T08:27:43.845Z,6.22
2023-02-22T08:30:31.411Z,5.68
2023-02-22T08:33:19.819Z,5.93
2023-02-22T08:36:06.181Z,6.10
2023-02-22T08:38:52.354Z,5.95
2023-02-22T08:41:38.178Z,5.43
2023-02-22T08:44:24.530Z,6.20
2023-02-22T08:47:10.407Z,6.18
2023-02-22T08:49:56.232Z,6.38
2023-02-22T08:52:42.138Z,5.07
2023-02-22T08:55:32.322Z,5.20
2023-02-22T08:58:18.306Z,5.47
2023-02-22T09:01:04.309Z,5.47
2023-02-22T09:03:51.458Z,5.50
2023-02-22T09:06:37.409Z,5.75
2023-02-22T09:09:23.555Z,4.50
2023-02-22T09:12:10.080Z,5.28
2023-02-22T09:14:55.726Z,5.43
2023-02-22T09:17:41.520Z,4.68
2023-02-22T09:20:27.792Z,5.20
2023-02-22T09:23:14.582Z,5.00
2023-02-22T09:26:01.042Z,5.28
2023-02-22T09:28:46.827Z,4.75
2023-02-22T09:31:35.812Z,5.05
2023-02-22T09:34:29.596Z,5.50
2023-02-22T09:37:15.483Z,7.13
2023-02-22T09:40:01.482Z,7.78
2023-02-22T09:42:57.049Z,7.03
2023-02-22T09:45:49.060Z,7.50
2023-02-22T09:48:36.699Z,7.47
2023-02-22T09:51:26.676Z,6.65
2023-02-22T09:54:27.238Z,7.18
2023-02-22T09:57:16.417Z,6.47
2023-02-22T10:00:13.734Z,7.30
2023-02-22T10:03:23.007Z,7.05
2023-02-22T10:06:15.017Z,6.53
2023-02-22T10:09:08.206Z,7.75
2023-02-22T10:11:58.585Z,5.40
2023-02-22T10:14:55.525Z,6.10
2023-02-22T10:17:48.153Z,6.72
2023-02-22T10:20:52.215Z,7.47
2023-02-22T10:24:04.564Z,8.10
2023-02-22T10:26:51.269Z,8.27
2023-02-22T10:29:47.187Z,8.10
2023-02-22T10:32:43.382Z,8.82
2023-02-22T10:35:33.743Z,9.02
2023-02-22T10:38:28.321Z,8.48
2023-02-22T10:41:24.363Z,9.82
2023-02-22T10:44:10.522Z,10.23
2023-02-22T10:46:56.639Z,9.50
2023-02-22T10:49:55.712Z,9.25
2023-02-22T10:52:41.870Z,10.05
2023-02-22T10:55:27.821Z,9.00
2023-02-22T10:58:14.041Z,9.00
2023-02-22T11:01:00.203Z,7.68
2023-02-22T11:03:46.158Z,6.75
2023-02-22T11:06:33.917Z,6.97
2023-02-22T11:09:24.603Z,5.47
2023-02-22T11:12:15.646Z,6.28
2023-02-22T11:15:24.348Z,8.10
2023-02-22T11:18:23.240Z,6.57
2023-02-22T11:21:11.707Z,6.57
2023-02-22T11:24:09.587Z,6.78
2023-02-22T11:26:58.995Z,8.63
2023-02-22T11:29:50.893Z,6.35
2023-02-22T11:32:43.510Z,5.93
2023-02-22T11:35:29.313Z,5.30
2023-02-22T11:38:29.763Z,5.82
2023-02-22T11:41:19.353Z,5.35
2023-02-22T11:44:29.764Z,5.18
2023-02-22T11:47:15.848Z,5.03
2023-02-22T11:50:02.379Z,4.95
2023-02-22T11:52:52.826Z,4.78
2023-02-22T11:55:45.068Z,4.40
2023-02-22T12:01:37.639Z,11.00
2023-02-22T12:04:44.811Z,10.82
2023-02-22T12:07:52.311Z,7.78
2023-02-22T12:11:10.222Z,8.38
2023-02-22T12:13:56.291Z,5.43
2023-02-22T12:16:45.073Z,8.82
2023-02-22T12:19:36.205Z,7.70
2023-02-22T12:22:28.052Z,5.45
2023-02-22T12:25:26.993Z,8.95
2023-02-22T12:28:24.937Z,5.95
2023-02-22T12:31:19.376Z,5.88
2023-02-22T12:34:41.407Z,5.35
2023-02-22T12:37:35.225Z,5.00
2023-02-22T12:40:31.140Z,4.25
2023-02-22T12:43:34.215Z,6.75
2023-02-22T12:46:21.853Z,4.38
2023-02-22T12:49:20.870Z,5.13
2023-02-22T12:52:35.349Z,7.10
2023-02-22T12:55:25.548Z,7.68
2023-02-22T12:58:31.467Z,6.45
2023-02-22T13:01:20.419Z,5.25
2023-02-22T13:04:20.180Z,5.40
2023-02-22T13:07:48.450Z,5.43
2023-02-22T13:10:53.411Z,5.45
2023-02-22T13:14:16.458Z,5.15
2023-02-22T13:17:27.422Z,5.50
2023-02-22T13:20:43.775Z,5.50
2023-02-22T13:23:46.236Z,5.70
2023-02-22T13:26:43.951Z,6.30
2023-02-22T13:29:35.334Z,4.38
2023-02-22T13:32:25.105Z,6.47
2023-02-22T13:35:20.539Z,6.03
2023-02-22T13:38:35.742Z,5.80
2023-02-22T13:41:45.139Z,4.82
2023-02-22T13:44:46.262Z,6.93
2023-02-22T13:47:57.977Z,5.60
2023-02-22T13:50:48.838Z,6.55
2023-02-22T13:53:56.077Z,6.05
2023-02-22T13:56:47.145Z,7.10
2023-02-22T13:59:37.206Z,5.68
2023-02-22T14:02:57.834Z,4.50
2023-02-22T14:05:46.798Z,4.80
2023-02-22T14:08:33.792Z,4.93
2023-02-22T14:11:19.769Z,5.00
2023-02-22T14:14:05.615Z,5.10
2023-02-22T14:17:21.991Z,6.30
2023-02-22T14:20:19.589Z,6.35
2023-02-22T14:23:23.747Z,6.25
2023-02-22T14:26:14.238Z,4.97
2023-02-22T14:29:09.110Z,6.70
2023-02-22T14:32:07.395Z,4.55
2023-02-22T14:34:55.083Z,4.45
2023-02-22T14:37:41.560Z,4.25
2023-02-22T14:40:32.048Z,8.10
2023-02-22T14:43:22.817Z,8.50
2023-02-22T14:46:13.375Z,8.18
2023-02-22T14:49:04.335Z,4.93
2023-02-22T14:52:00.044Z,4.75
2023-02-22T14:55:13.779Z,6.75
2023-02-22T14:58:06.145Z,6.47
2023-02-22T15:00:53.865Z,6.10
2023-02-22T15:03:39.654Z,8.20
2023-02-22T15:06:28.735Z,8.35
2023-02-22T15:09:29.225Z,9.57
2023-02-22T15:12:30.028Z,13.57
2023-02-22T15:15:22.114Z,9.07
2023-02-22T15:18:22.171Z,8.98
2023-02-22T15:21:13.492Z,7.47
2023-02-22T15:24:02.077Z,9.85
2023-02-22T15:27:00.854Z,9.48
2023-02-22T15:29:47.510Z,10.48
2023-02-22T15:32:53.394Z,11.15
2023-02-22T15:35:44.301Z,11.10
2023-02-22T15:38:30.975Z,10.50
2023-02-22T15:41:27.991Z,9.65
2023-02-22T15:44:23.166Z,10.60
2023-02-22T15:47:18.070Z,10.70
2023-02-22T15:50:25.927Z,10.85
2023-02-22T15:53:21.021Z,12.55
2023-02-22T15:56:20.407Z,14.90
2023-02-22T15:59:12.885Z,20.92
2023-02-22T16:01:59.757Z,29.20
2023-02-22T16:04:54.542Z,24.75
2023-02-22T16:07:50.121Z,24.38
2023-02-22T16:10:37.056Z,21.02
2023-02-22T16:13:32.027Z,21.48
2023-02-22T16:16:20.965Z,21.80
2023-02-22T16:19:32.893Z,23.58
2023-02-22T16:22:29.710Z,21.70
2023-02-22T16:25:18.946Z,20.23
2023-02-22T16:28:30.849Z,20.27
2023-02-22T16:31:17.435Z,20.50
2023-02-22T16:34:06.154Z,20.52
2023-02-22T16:36:52.280Z,19.25
2023-02-22T16:39:38.979Z,19.80
2023-02-22T16:42:25.666Z,18.05
2023-02-22T16:45:16.437Z,20.05
2023-02-22T16:48:21.410Z,17.27
2023-02-22T16:51:10.725Z,18.00
2023-02-22T16:53:56.754Z,20.55
2023-02-22T16:56:42.660Z,22.30
2023-02-22T16:59:29.262Z,20.70
2023-02-22T17:02:15.603Z,18.48
2023-02-22T17:05:01.790Z,20.48
2023-02-22T17:07:47.859Z,21.85
2023-02-22T17:10:34.309Z,23.27
2023-02-22T17:13:26.652Z,22.23
2023-02-22T17:19:05.106Z,14.85
2023-02-22T17:21:51.006Z,12.85
2023-02-22T17:24:39.272Z,14.63
2023-02-22T17:27:25.401Z,15.13
2023-02-22T17:30:13.996Z,18.73
2023-02-22T17:33:03.939Z,26.35
2023-02-22T17:35:50.081Z,26.88
2023-02-22T17:38:36.570Z,24.65
2023-02-22T17:41:22.639Z,21.67
2023-02-22T17:44:08.795Z,21.65
2023-02-22T17:46:54.716Z,20.60
2023-02-22T17:49:40.791Z,15.32
2023-02-22T17:52:30.236Z,12.68
2023-02-22T17:55:17.041Z,12.75
2023-02-22T17:58:03.100Z,12.32
2023-02-22T18:00:50.370Z,13.52
2023-02-22T18:03:40.217Z,12.43
2023-02-22T18:06:30.163Z,12.60
2023-02-22T18:09:17.839Z,12.52
2023-02-22T18:12:04.194Z,14.63
2023-02-22T18:14:50.158Z,14.43
2023-02-22T18:17:36.988Z,19.65
2023-02-22T18:20:38.311Z,15.93
2023-02-22T18:23:27.897Z,15.40
2023-02-22T18:26:21.593Z,13.80
2023-02-22T18:29:07.862Z,13.65
2023-02-22T18:31:54.036Z,12.73
2023-02-22T18:34:40.249Z,12.88
2023-02-22T18:37:28.350Z,13.52
2023-02-22T18:40:14.294Z,13.70
2023-02-22T18:43:00.420Z,13.82
2023-02-22T18:45:46.407Z,13.25
2023-02-22T18:48:32.914Z,11.75
2023-02-22T18:51:18.802Z,11.77
2023-02-22T18:54:04.722Z,12.55
2023-02-22T18:56:50.615Z,14.55
2023-02-22T18:59:38.116Z,11.98
2023-02-22T19:02:25.554Z,16.25
2023-02-22T19:05:12.758Z,12.00
2023-02-22T19:07:59.078Z,11.90
2023-02-22T19:10:45.283Z,11.52
2023-02-22T19:13:32.065Z,9.73
2023-02-22T19:16:22.877Z,10.57
2023-02-22T19:19:09.584Z,11.30
2023-02-22T19:21:56.479Z,13.18
2023-02-22T19:24:45.744Z,13.13
2023-02-22T19:27:34.048Z,13.48
2023-02-22T19:30:20.256Z,12.45
2023-02-22T19:33:06.437Z,12.40
2023-02-22T19:35:52.432Z,11.18
2023-02-22T19:38:39.344Z,11.60
2023-02-22T19:41:25.459Z,12.57
2023-02-22T19:44:12.385Z,12.50
2023-02-22T19:46:58.120Z,13.35
2023-02-22T19:49:43.957Z,12.10
2023-02-22T19:52:29.910Z,12.02
2023-02-22T19:55:15.943Z,12.35
2023-02-22T19:58:02.101Z,12.38
2023-02-22T20:00:47.959Z,12.70
2023-02-22T20:03:35.300Z,12.70
2023-02-22T20:06:23.138Z,13.45
2023-02-22T20:09:12.501Z,12.65
2023-02-22T20:11:58.733Z,12.50
2023-02-22T20:14:46.320Z,11.60
2023-02-22T20:17:32.664Z,13.75
2023-02-22T20:20:18.799Z,14.75
2023-02-22T20:23:07.601Z,12.77
2023-02-22T20:25:55.120Z,13.18
2023-02-22T20:28:41.363Z,13.35
2023-02-22T20:31:29.631Z,14.80
2023-02-22T20:34:15.620Z,13.68
2023-02-22T20:37:02.486Z,13.02
2023-02-22T20:39:50.763Z,11.38
2023-02-22T20:42:36.888Z,11.65
2023-02-22T20:45:22.979Z,11.50
2023-02-22T20:48:09.232Z,10.43
2023-02-22T20:50:55.214Z,12.05
2023-02-22T20:53:42.106Z,11.43
2023-02-22T20:56:30.167Z,11.05
2023-02-22T20:59:17.881Z,11.65
2023-02-22T21:02:04.252Z,11.15
2023-02-22T21:04:50.161Z,11.25
2023-02-22T21:07:35.978Z,11.02
2023-02-22T21:10:21.880Z,13.27
2023-02-22T21:13:11.243Z,10.65
2023-02-22T21:15:57.565Z,12.45
2023-02-22T21:18:43.532Z,11.30
2023-02-22T21:21:30.045Z,12.82
2023-02-22T21:24:16.005Z,12.70
2023-02-22T21:27:02.597Z,10.90
2023-02-22T21:29:48.626Z,10.95
2023-02-22T21:32:35.631Z,11.50
2023-02-22T21:35:23.137Z,10.82
2023-02-22T21:38:14.463Z,11.38
2023-02-22T21:41:03.322Z,10.60
2023-02-22T21:43:53.177Z,10.45
2023-02-22T21:46:39.439Z,11.00
2023-02-22T21:49:25.426Z,11.05
2023-02-22T21:52:11.272Z,11.75
2023-02-22T21:54:57.196Z,11.05
2023-02-22T21:57:43.076Z,10.77
2023-02-22T22:00:29.264Z,10.68
2023-02-22T22:03:20.506Z,11.45
2023-02-22T22:06:13.596Z,12.63
2023-02-22T22:09:00.189Z,11.55
2023-02-22T22:11:50.276Z,12.20
2023-02-22T22:14:37.484Z,11.63
2023-02-22T22:17:23.999Z,11.35
2023-02-22T22:20:11.692Z,11.50
2023-02-22T22:22:57.476Z,11.07
2023-02-22T22:25:43.781Z,10.27
2023-02-22T22:28:31.600Z,10.70
2023-02-22T22:31:19.670Z,11.48
2023-02-22T22:34:06.389Z,10.80
2023-02-22T22:36:52.785Z,11.65
2023-02-22T22:39:38.893Z,11.13
2023-02-22T22:42:25.047Z,12.38
2023-02-22T22:45:11.938Z,13.55
2023-02-22T22:47:57.703Z,13.35
2023-02-22T22:50:46.542Z,13.35
2023-02-22T22:53:34.163Z,12.60
2023-02-22T22:56:29.153Z,11.95
2023-02-22T22:59:15.578Z,10.70
2023-02-22T23:02:04.539Z,11.38
2023-02-22T23:04:51.718Z,9.90
2023-02-22T23:07:37.978Z,10.50
2023-02-22T23:10:30.096Z,10.35
2023-02-22T23:13:16.273Z,11.25
2023-02-22T23:16:02.201Z,10.30
2023-02-22T23:18:47.912Z,10.02
2023-02-22T23:21:35.930Z,10.55
2023-02-22T23:24:22.074Z,10.32
2023-02-22T23:27:08.161Z,10.25
2023-02-22T23:29:54.097Z,10.20
2023-02-22T23:32:41.345Z,10.23
2023-02-22T23:35:27.628Z,10.52
2023-02-22T23:38:13.560Z,11.00
2023-02-22T23:41:03.992Z,10.70
2023-02-22T23:43:51.776Z,10.05
2023-02-22T23:46:41.216Z,9.38
2023-02-22T23:49:35.874Z,9.70
2023-02-22T23:52:24.526Z,9.65
2023-02-22T23:55:10.473Z,10.55
2023-02-22T23:57:59.514Z,10.05
